Terminal Aerodrome Forecast
Issued by NWS

Home | Current Version | Previous Version | Text Only | Print | Product List | Glossary On
Versions: 1 2 3 4 5 6 7 8 9 10 11 12 13 14 15 16 17 18
000
FTUS41 KPBZ 211600 AAA
TAFBVI
TAF AMD
KBVI 211603Z 2116/2212 19008KT P6SM BKN015
     FM211730 23010KT P6SM BKN050
     FM211900 24009KT P6SM VCTS BKN040CB
     FM220200 VRB04KT P6SM SCT040
     FM220800 VRB03KT 6SM BR SCT040 BKN080=

USA.gov is the U.S. government's official web portal to all federal, state and local government web resources and services.